Time;durP1;ratioP1;P1;durP2;ratioP2;P2;SDS_P1;SDS_P2;PMS_P1;PMS_P2;Temp;Humidity;BMP_temperature;BMP_pressure;BME280_temperature;BME280_humidity;BME280_pressure;Samples;Min_cycle;Max_cycle;Signal;HPM_P1;HPM_P2
2024/04/14 00:01:42;;;;;;;9.68;5.55;;;;;;;20.59;46.08;100326.13;5449544;26;19998;-37
2024/04/14 00:04:08;;;;;;;10.05;5.80;;;;;;;20.62;45.79;100322.94;5449498;26;20003;-37
2024/04/14 00:06:34;;;;;;;9.30;5.90;;;;;;;20.77;45.95;100325.00;5447434;26;20018;-39
2024/04/14 00:08:59;;;;;;;12.32;5.82;;;;;;;20.78;45.49;100323.91;5445786;26;19991;-39
2024/04/14 00:11:24;;;;;;;10.93;5.65;;;;;;;20.72;45.44;100324.13;5449065;26;20422;-36
2024/04/14 00:13:50;;;;;;;12.05;6.00;;;;;;;20.79;45.50;100314.72;5449102;26;20376;-39
2024/04/14 00:16:16;;;;;;;11.13;5.90;;;;;;;20.80;45.56;100315.53;5448444;26;19995;-40
2024/04/14 00:18:41;;;;;;;10.10;6.28;;;;;;;20.81;45.61;100306.31;5448891;26;19999;-38
2024/04/14 00:21:07;;;;;;;9.57;6.28;;;;;;;20.68;46.24;100305.69;5448679;26;20072;-40
2024/04/14 00:23:32;;;;;;;7.70;6.00;;;;;;;20.63;46.46;100315.66;5448952;26;20618;-39
2024/04/14 00:25:58;;;;;;;12.93;5.82;;;;;;;20.68;46.13;100305.69;5448868;26;20014;-38
2024/04/14 00:28:23;;;;;;;11.02;6.05;;;;;;;20.72;46.22;100311.41;5449079;26;20411;-39
2024/04/14 00:30:48;;;;;;;11.68;5.78;;;;;;;20.69;46.20;100309.22;5448498;26;20451;-39
2024/04/14 00:33:14;;;;;;;15.50;6.30;;;;;;;20.71;46.33;100309.75;5448739;26;20009;-39
2024/04/14 00:35:41;;;;;;;10.68;5.95;;;;;;;20.53;46.62;100300.13;5446967;26;20443;-40
2024/04/14 00:38:06;;;;;;;11.80;6.10;;;;;;;20.39;47.70;100312.41;5448691;26;19995;-39
2024/04/14 00:40:32;;;;;;;9.93;6.10;;;;;;;20.30;47.57;100315.56;5448741;26;20013;-38
2024/04/14 00:42:58;;;;;;;14.88;6.57;;;;;;;20.40;47.85;100314.84;5448318;26;20633;-37
2024/04/14 00:45:26;;;;;;;7.78;5.60;;;;;;;20.41;48.06;100315.66;5446231;26;20019;-39
2024/04/14 00:47:51;;;;;;;14.65;6.97;;;;;;;20.42;47.60;100312.72;5448101;26;20006;-38
2024/04/14 00:50:17;;;;;;;11.02;6.45;;;;;;;20.31;47.87;100309.09;5448452;26;20349;-38
2024/04/14 00:52:43;;;;;;;15.07;6.15;;;;;;;20.38;47.93;100314.28;5448500;26;20075;-39
2024/04/14 00:55:09;;;;;;;8.23;5.88;;;;;;;20.40;47.94;100314.03;5448118;26;19995;-39
2024/04/14 00:57:35;;;;;;;10.00;5.93;;;;;;;20.49;47.36;100305.22;5448327;26;20080;-40
2024/04/14 01:00:01;;;;;;;12.25;6.00;;;;;;;20.40;48.07;100304.03;5448146;26;19999;-39
2024/04/14 01:02:27;;;;;;;13.13;6.20;;;;;;;20.34;48.44;100306.97;5448071;26;20009;-39
2024/04/14 01:04:52;;;;;;;13.27;6.53;;;;;;;20.31;48.09;100302.88;5448170;26;20003;-39
2024/04/14 01:07:19;;;;;;;12.82;6.18;;;;;;;20.27;48.50;100302.56;5448550;26;19999;-40
2024/04/14 01:09:44;;;;;;;9.10;6.10;;;;;;;20.23;48.70;100312.25;5450426;26;20071;-39
2024/04/14 01:12:09;;;;;;;13.32;6.20;;;;;;;20.26;48.48;100314.44;5449390;26;20011;-39
2024/04/14 01:14:35;;;;;;;8.55;5.68;;;;;;;20.34;48.45;100315.06;5450097;26;20068;-39
2024/04/14 01:17:00;;;;;;;7.85;5.53;;;;;;;20.30;48.18;100304.75;5449421;26;20347;-36
2024/04/14 01:19:26;;;;;;;8.77;5.70;;;;;;;20.33;48.76;100314.22;5449950;26;20009;-39
2024/04/14 01:21:52;;;;;;;10.77;5.95;;;;;;;20.39;48.33;100313.25;5452560;26;20002;-39
2024/04/14 01:24:17;;;;;;;13.40;6.25;;;;;;;20.36;49.05;100312.94;5452939;26;19994;-39
2024/04/14 01:26:42;;;;;;;8.98;6.22;;;;;;;20.38;48.67;100311.59;5453209;26;19994;-39
2024/04/14 01:29:08;;;;;;;10.57;6.45;;;;;;;20.40;48.77;100314.03;5452861;26;20439;-39
2024/04/14 01:31:33;;;;;;;8.73;6.00;;;;;;;20.39;48.48;100310.53;5453044;26;20359;-37
2024/04/14 01:33:59;;;;;;;8.75;5.90;;;;;;;20.44;48.33;100307.06;5452912;26;20018;-37
2024/04/14 01:36:24;;;;;;;8.73;5.70;;;;;;;20.49;48.01;100310.63;5452888;26;19999;-39
2024/04/14 01:38:49;;;;;;;12.27;5.60;;;;;;;20.44;48.33;100310.56;5452681;26;20072;-36
2024/04/14 01:41:15;;;;;;;8.88;5.85;;;;;;;20.38;48.74;100305.38;5453097;26;20163;-38
2024/04/14 01:43:40;;;;;;;9.98;5.82;;;;;;;20.27;48.99;100305.25;5452915;26;19999;-40
2024/04/14 01:46:05;;;;;;;11.90;5.78;;;;;;;20.25;49.09;100298.47;5453228;26;19999;-39
2024/04/14 01:48:31;;;;;;;8.95;5.60;;;;;;;20.18;49.21;100309.50;5452630;26;20019;-36
2024/04/14 01:50:56;;;;;;;8.68;5.68;;;;;;;20.29;48.78;100305.00;5452586;26;20002;-38
2024/04/14 01:53:21;;;;;;;8.52;5.75;;;;;;;20.31;49.01;100305.56;5452612;26;20003;-37
2024/04/14 01:55:47;;;;;;;10.73;5.80;;;;;;;20.08;48.99;100299.38;5452523;26;20078;-40
2024/04/14 01:58:13;;;;;;;8.25;6.05;;;;;;;20.05;49.45;100307.19;5452806;26;20007;-39
2024/04/14 02:00:38;;;;;;;7.70;5.30;;;;;;;20.00;49.54;100299.03;5452472;26;20453;-39
2024/04/14 02:03:04;;;;;;;9.73;5.60;;;;;;;20.11;49.51;100298.06;5452409;26;19995;-39
2024/04/14 02:05:29;;;;;;;9.48;5.85;;;;;;;20.02;49.88;100297.69;5452100;26;20009;-36
2024/04/14 02:07:55;;;;;;;13.20;5.97;;;;;;;20.00;49.52;100299.03;5452290;26;20338;-39
2024/04/14 02:10:20;;;;;;;7.30;5.57;;;;;;;20.13;49.25;100303.22;5452915;26;20013;-39
2024/04/14 02:12:46;;;;;;;12.52;6.32;;;;;;;20.07;49.72;100302.34;5452979;26;20021;-38
2024/04/14 02:15:11;;;;;;;10.00;6.20;;;;;;;20.08;49.67;100304.78;5452608;26;19999;-39
2024/04/14 02:17:36;;;;;;;11.73;6.43;;;;;;;20.02;50.04;100304.97;5452737;26;19994;-39
2024/04/14 02:20:03;;;;;;;10.20;5.93;;;;;;;20.02;50.17;100304.97;5452958;26;20479;-38
2024/04/14 02:22:28;;;;;;;11.88;6.32;;;;;;;19.98;49.84;100307.38;5452549;26;20460;-39
2024/04/14 02:24:54;;;;;;;9.18;5.88;;;;;;;19.94;49.75;100300.84;5452469;26;20007;-38
2024/04/14 02:27:19;;;;;;;9.77;6.07;;;;;;;19.98;50.16;100309.25;5452586;26;19995;-39
2024/04/14 02:29:44;;;;;;;9.88;6.07;;;;;;;19.96;49.94;100314.91;5452368;26;20006;-36
2024/04/14 02:32:10;;;;;;;11.65;5.80;;;;;;;19.88;50.34;100321.56;5451392;26;19999;-39
2024/04/14 02:34:35;;;;;;;8.38;5.85;;;;;;;19.71;50.71;100308.09;5451997;26;20012;-35
2024/04/14 02:37:01;;;;;;;9.02;5.65;;;;;;;19.57;50.99;100308.69;5451963;26;20117;-38
2024/04/14 02:39:26;;;;;;;9.18;5.40;;;;;;;19.47;51.50;100318.28;5452161;26;20013;-39
2024/04/14 02:41:52;;;;;;;10.75;5.82;;;;;;;19.48;51.27;100311.03;5452138;26;20017;-39
2024/04/14 02:44:17;;;;;;;9.27;5.70;;;;;;;19.43;51.04;100314.44;5452204;26;20010;-40
2024/04/14 02:46:43;;;;;;;11.77;5.47;;;;;;;19.31;51.73;100305.66;5452185;26;19995;-39
2024/04/14 02:49:09;;;;;;;10.18;5.80;;;;;;;19.02;52.79;100307.63;5451576;26;20476;-39
2024/04/14 02:51:35;;;;;;;11.20;5.60;;;;;;;18.96;53.12;100306.72;5452292;26;19999;-40
2024/04/14 02:54:00;;;;;;;9.18;5.55;;;;;;;18.93;53.28;100307.22;5451499;26;20014;-40
2024/04/14 02:56:26;;;;;;;8.20;5.70;;;;;;;18.73;54.13;100307.66;5451558;26;19999;-39
2024/04/14 02:58:51;;;;;;;7.75;5.53;;;;;;;19.06;53.22;100311.47;5451707;26;20134;-40
2024/04/14 03:01:17;;;;;;;10.05;6.18;;;;;;;19.07;52.74;100313.09;5451693;26;20436;-40
2024/04/14 03:03:44;;;;;;;9.48;5.63;;;;;;;19.24;52.62;100310.41;5451535;26;19999;-39
2024/04/14 03:06:09;;;;;;;12.05;5.65;;;;;;;19.26;52.13;100322.56;5451477;26;19999;-40
2024/04/14 03:08:35;;;;;;;10.13;5.50;;;;;;;18.79;53.55;100322.88;5450409;26;20009;-39
2024/04/14 03:11:01;;;;;;;8.38;5.53;;;;;;;18.86;53.19;100314.66;5449922;26;19995;-40
2024/04/14 03:13:27;;;;;;;8.90;5.43;;;;;;;18.82;53.48;100311.63;5450602;26;19995;-39
2024/04/14 03:15:53;;;;;;;10.82;6.07;;;;;;;19.09;52.72;100311.78;5451409;26;20610;-39
2024/04/14 03:18:18;;;;;;;7.25;5.90;;;;;;;19.02;53.39;100311.16;5451892;26;20042;-40
2024/04/14 03:21:04;;;;;;;7.30;5.80;;;;;;;19.01;53.28;100322.19;5450942;26;20087;-40
2024/04/14 03:23:32;;;;;;;9.27;5.32;;;;;;;18.74;53.63;100318.22;5451188;26;20075;-40
2024/04/14 03:25:57;;;;;;;11.68;6.00;;;;;;;18.72;53.70;100317.63;5451212;26;19998;-40
2024/04/14 03:28:24;;;;;;;9.38;5.47;;;;;;;18.98;53.56;100326.16;5451442;26;19999;-43
2024/04/14 03:30:50;;;;;;;8.45;5.65;;;;;;;18.89;53.62;100315.00;5451088;26;19998;-39
2024/04/14 03:33:15;;;;;;;8.85;5.88;;;;;;;18.81;53.54;100307.31;5451632;26;19998;-40
2024/04/14 03:35:41;;;;;;;8.07;5.38;;;;;;;19.17;53.21;100326.72;5451516;26;20338;-39
2024/04/14 03:38:06;;;;;;;9.20;5.60;;;;;;;18.92;53.39;100327.16;5450816;26;20081;-40
2024/04/14 03:40:32;;;;;;;7.55;5.78;;;;;;;18.90;53.72;100318.50;5450991;26;20010;-40
2024/04/14 03:42:57;;;;;;;9.82;5.43;;;;;;;18.97;53.18;100316.47;5450811;26;20007;-40
2024/04/14 03:45:24;;;;;;;8.38;5.60;;;;;;;19.22;52.50;100323.31;5450916;26;19995;-40
2024/04/14 03:47:52;;;;;;;7.53;5.30;;;;;;;18.93;53.37;100320.72;5450187;26;20011;-40
2024/04/14 03:50:18;;;;;;;7.88;5.60;;;;;;;18.97;53.10;100321.84;5450817;26;19995;-39
2024/04/14 03:52:43;;;;;;;11.00;5.80;;;;;;;19.02;52.70;100318.41;5451493;26;20519;-40
2024/04/14 03:55:09;;;;;;;7.13;5.50;;;;;;;19.34;51.53;100324.03;5451124;26;20006;-40
2024/04/14 03:57:34;;;;;;;8.25;5.70;;;;;;;19.21;52.41;100324.38;5450833;26;20423;-40
2024/04/14 03:59:59;;;;;;;8.82;5.47;;;;;;;19.46;52.19;100316.66;5450677;26;20021;-40
2024/04/14 04:02:24;;;;;;;8.55;5.68;;;;;;;19.43;51.89;100321.75;5452094;26;20009;-40
2024/04/14 04:04:50;;;;;;;11.07;5.65;;;;;;;19.56;51.90;100328.69;5451307;26;19994;-43
2024/04/14 04:07:15;;;;;;;8.43;5.30;;;;;;;19.82;50.56;100325.28;5452286;26;20074;-39
2024/04/14 04:09:41;;;;;;;12.18;5.60;;;;;;;19.82;50.97;100327.13;5451643;26;20338;-40
2024/04/14 04:12:06;;;;;;;8.32;5.72;;;;;;;20.05;50.68;100328.81;5452029;26;20017;-40
2024/04/14 04:14:31;;;;;;;10.15;5.50;;;;;;;19.79;50.96;100327.66;5451511;26;19995;-41
2024/04/14 04:16:57;;;;;;;9.52;5.20;;;;;;;19.90;50.38;100327.53;5451484;26;20009;-39
2024/04/14 04:19:22;;;;;;;9.27;5.70;;;;;;;20.24;49.82;100326.59;5451372;26;19994;-35
2024/04/14 04:21:47;;;;;;;9.88;5.18;;;;;;;20.61;49.11;100325.91;5451108;26;20435;-38
2024/04/14 04:24:13;;;;;;;7.22;5.05;;;;;;;20.45;49.76;100335.72;5450922;26;21578;-39
2024/04/14 04:26:38;;;;;;;7.60;4.90;;;;;;;20.86;48.68;100328.81;5450630;26;20411;-39
2024/04/14 04:29:03;;;;;;;8.00;5.18;;;;;;;21.20;47.19;100323.16;5451934;26;19995;-37
2024/04/14 04:31:29;;;;;;;7.60;4.63;;;;;;;21.52;46.55;100327.72;5451176;26;20597;-40
2024/04/14 04:33:54;;;;;;;9.05;5.25;;;;;;;21.90;45.80;100333.88;5451404;26;19995;-39
2024/04/14 04:36:19;;;;;;;8.20;5.45;;;;;;;22.36;44.55;100335.94;5451689;26;20006;-41
2024/04/14 04:38:45;;;;;;;11.52;5.05;;;;;;;22.69;43.95;100337.34;5451633;26;19995;-41
2024/04/14 04:41:11;;;;;;;9.65;5.03;;;;;;;22.92;43.06;100333.28;5451667;26;20443;-39
2024/04/14 04:43:37;;;;;;;8.57;5.32;;;;;;;23.22;42.70;100331.69;5451613;26;19999;-39
2024/04/14 04:46:03;;;;;;;8.38;5.22;;;;;;;23.59;41.92;100338.69;5451464;26;19994;-39
2024/04/14 04:48:28;;;;;;;7.82;5.32;;;;;;;23.89;41.40;100345.13;5451279;26;20010;-40
2024/04/14 04:50:53;;;;;;;9.23;5.40;;;;;;;23.87;41.20;100341.88;5451194;26;20626;-39
2024/04/14 04:53:19;;;;;;;10.15;5.82;;;;;;;24.06;40.56;100342.88;5451301;26;20006;-39
2024/04/14 04:55:44;;;;;;;10.02;5.60;;;;;;;23.79;41.15;100352.22;5452440;26;19995;-40
2024/04/14 04:58:13;;;;;;;8.15;5.57;;;;;;;24.07;40.66;100355.41;5454399;26;19999;-38
2024/04/14 05:00:38;;;;;;;12.13;5.82;;;;;;;24.27;40.76;100359.91;5455316;26;19999;-40
2024/04/14 05:03:04;;;;;;;8.95;5.68;;;;;;;24.56;39.67;100356.50;5454981;26;20013;-39
2024/04/14 05:05:29;;;;;;;6.68;5.07;;;;;;;24.80;39.14;100356.63;5454440;26;19998;-38
2024/04/14 05:07:55;;;;;;;9.68;5.03;;;;;;;25.25;38.85;100353.84;5455059;26;20418;-38
2024/04/14 05:10:20;;;;;;;10.10;5.57;;;;;;;25.63;38.25;100354.03;5454403;26;19994;-38
2024/04/14 05:12:46;;;;;;;10.57;5.47;;;;;;;26.18;37.45;100357.19;5454376;26;20013;-36
2024/04/14 05:15:11;;;;;;;8.68;5.15;;;;;;;26.77;36.01;100351.44;5455661;26;19998;-38
2024/04/14 05:17:36;;;;;;;11.10;5.13;;;;;;;26.71;36.26;100353.44;5453875;26;20006;-40
2024/04/14 05:20:02;;;;;;;10.02;5.43;;;;;;;27.24;35.57;100358.56;5454167;26;20010;-39
2024/04/14 05:22:27;;;;;;;7.47;4.80;;;;;;;27.25;35.21;100362.16;5454398;26;20013;-39
2024/04/14 05:24:53;;;;;;;9.75;5.30;;;;;;;27.60;34.70;100357.16;5454515;26;20002;-40
2024/04/14 05:27:20;;;;;;;12.23;6.45;;;;;;;27.43;34.85;100360.47;5454834;26;20084;-43
2024/04/14 05:29:46;;;;;;;11.40;6.20;;;;;;;27.01;34.57;100349.41;5454512;26;20014;-41
2024/04/14 05:32:12;;;;;;;10.90;5.72;;;;;;;27.23;34.49;100353.44;5454510;26;19995;-39
2024/04/14 05:34:37;;;;;;;8.38;4.95;;;;;;;27.41;34.73;100359.97;5454417;26;19999;-40
2024/04/14 05:37:03;;;;;;;8.27;5.10;;;;;;;27.44;34.43;100364.84;5454183;26;20432;-40
2024/04/14 05:39:28;;;;;;;9.40;5.03;;;;;;;27.76;34.42;100361.22;5454707;26;20326;-38
2024/04/14 05:41:54;;;;;;;13.00;5.00;;;;;;;27.58;34.35;100356.66;5453994;26;20356;-40
2024/04/14 05:44:19;;;;;;;6.40;4.70;;;;;;;27.89;33.96;100359.59;5453912;26;19995;-41
2024/04/14 05:46:44;;;;;;;10.40;4.78;;;;;;;27.89;33.04;100356.88;5454717;26;19999;-40
2024/04/14 05:49:10;;;;;;;6.07;4.72;;;;;;;28.38;33.03;100360.75;5454239;26;19995;-39
2024/04/14 05:51:35;;;;;;;7.38;4.78;;;;;;;28.25;32.98;100356.94;5453773;26;19995;-38
2024/04/14 05:54:00;;;;;;;7.25;4.97;;;;;;;28.35;32.48;100355.91;5452084;26;20013;-37
2024/04/14 05:56:26;;;;;;;7.70;4.70;;;;;;;27.73;32.91;100350.88;5454445;26;19998;-40
2024/04/14 05:58:51;;;;;;;10.63;4.50;;;;;;;27.84;32.98;100354.22;5454351;26;20026;-38
2024/04/14 06:01:16;;;;;;;5.53;4.60;;;;;;;28.11;33.04;100358.88;5454414;26;20520;-39
2024/04/14 06:03:42;;;;;;;7.97;4.60;;;;;;;28.07;32.82;100363.34;5453677;26;20012;-40
2024/04/14 06:06:07;;;;;;;10.75;5.00;;;;;;;28.46;32.17;100362.78;5454217;26;19995;-42
2024/04/14 06:08:33;;;;;;;10.55;6.00;;;;;;;28.74;31.91;100359.97;5453050;26;20017;-40
2024/04/14 06:10:59;;;;;;;9.07;5.28;;;;;;;29.06;31.19;100358.09;5454164;26;20009;-39
2024/04/14 06:13:24;;;;;;;7.07;4.40;;;;;;;28.74;31.22;100365.44;5453993;26;19999;-41
2024/04/14 06:15:50;;;;;;;9.82;4.80;;;;;;;28.50;31.70;100370.34;5453553;26;20044;-40
2024/04/14 06:18:16;;;;;;;7.13;4.60;;;;;;;28.84;31.44;100359.72;5453420;26;19994;-39
2024/04/14 06:20:41;;;;;;;7.68;4.43;;;;;;;29.26;31.00;100355.97;5453430;26;20009;-42
2024/04/14 06:23:06;;;;;;;9.60;4.68;;;;;;;29.86;30.64;100355.44;5453814;26;20060;-39
2024/04/14 06:25:32;;;;;;;9.73;5.40;;;;;;;30.21;30.64;100359.09;5453548;26;20005;-39
2024/04/14 06:27:58;;;;;;;11.40;5.25;;;;;;;30.02;31.29;100353.06;5453615;26;19999;-39
2024/04/14 06:30:23;;;;;;;8.05;4.32;;;;;;;30.59;30.80;100361.22;5453962;26;19998;-41
2024/04/14 06:32:52;;;;;;;8.95;3.97;;;;;;;29.62;29.69;100364.03;5453627;26;19998;-39
2024/04/14 06:35:17;;;;;;;10.00;4.47;;;;;;;30.12;30.54;100363.75;5453442;26;19999;-40
2024/04/14 06:37:43;;;;;;;8.00;4.20;;;;;;;30.33;28.68;100357.66;5453818;26;19999;-41
2024/04/14 06:40:10;;;;;;;8.25;4.60;;;;;;;30.48;30.26;100354.47;5453529;26;20035;-39
2024/04/14 06:42:36;;;;;;;8.27;4.22;;;;;;;30.37;28.47;100364.13;5452419;26;19995;-37
2024/04/14 06:45:01;;;;;;;8.20;4.40;;;;;;;30.10;29.00;100363.25;5452246;26;20002;-40
2024/04/14 06:47:27;;;;;;;10.93;4.47;;;;;;;29.12;30.43;100373.28;5451911;26;20002;-40
2024/04/14 06:49:52;;;;;;;11.02;4.53;;;;;;;29.09;30.09;100364.88;5451603;26;20002;-39
2024/04/14 06:52:17;;;;;;;5.65;3.88;;;;;;;29.41;30.30;100372.00;5451810;26;20014;-39
2024/04/14 06:54:43;;;;;;;9.18;4.20;;;;;;;29.37;29.79;100368.28;5451543;26;20035;-38
2024/04/14 06:57:08;;;;;;;8.15;4.65;;;;;;;29.32;30.10;100361.03;5451491;26;20400;-40
2024/04/14 06:59:34;;;;;;;5.90;4.20;;;;;;;29.54;29.86;100365.63;5450933;26;19994;-38
2024/04/14 07:01:59;;;;;;;5.68;3.80;;;;;;;29.19;30.25;100361.91;5451271;26;20010;-39
2024/04/14 07:04:25;;;;;;;8.85;3.95;;;;;;;30.09;29.06;100358.09;5451380;26;20084;-40
2024/04/14 07:06:50;;;;;;;9.30;4.25;;;;;;;30.25;29.05;100355.69;5450392;26;19999;-42
2024/04/14 07:09:16;;;;;;;5.50;4.28;;;;;;;30.82;28.20;100361.03;5451498;26;20083;-38
2024/04/14 07:11:41;;;;;;;6.13;3.92;;;;;;;30.06;28.50;100353.22;5451026;26;19999;-40
2024/04/14 07:14:06;;;;;;;9.40;3.95;;;;;;;29.90;29.04;100358.38;5449925;26;20447;-39
2024/04/14 07:16:32;;;;;;;6.70;4.00;;;;;;;30.12;28.63;100368.41;5450290;26;19995;-39
2024/04/14 07:18:57;;;;;;;8.85;4.05;;;;;;;30.01;28.82;100360.50;5449894;26;20052;-40
2024/04/14 07:21:23;;;;;;;8.00;4.03;;;;;;;29.29;29.30;100358.91;5449674;26;20622;-40
2024/04/14 07:23:48;;;;;;;7.47;3.80;;;;;;;29.69;29.06;100364.41;5451134;26;20396;-41
2024/04/14 07:26:13;;;;;;;6.63;4.00;;;;;;;29.79;29.17;100353.16;5451671;26;20417;-42
2024/04/14 07:28:39;;;;;;;6.78;3.70;;;;;;;30.46;28.12;100351.19;5450831;26;20044;-39
2024/04/14 07:31:04;;;;;;;8.73;3.78;;;;;;;30.39;28.32;100356.38;5451129;26;19995;-40
2024/04/14 07:33:29;;;;;;;7.60;3.95;;;;;;;30.93;27.44;100353.31;5450952;26;20006;-40
2024/04/14 07:35:55;;;;;;;7.68;4.05;;;;;;;30.36;27.41;100351.53;5451087;26;19994;-46
2024/04/14 07:38:20;;;;;;;8.07;4.20;;;;;;;30.19;28.42;100347.59;5450946;26;19995;-41
2024/04/14 07:40:45;;;;;;;8.45;3.47;;;;;;;30.39;27.98;100335.22;5450722;26;19995;-38
2024/04/14 07:43:11;;;;;;;5.85;3.58;;;;;;;31.18;26.84;100338.69;5450506;26;20067;-39
2024/04/14 07:45:36;;;;;;;6.88;3.90;;;;;;;31.51;27.46;100346.38;5451984;26;20021;-38
2024/04/14 07:48:02;;;;;;;8.57;3.70;;;;;;;32.06;27.43;100341.91;5451768;26;20014;-41
2024/04/14 07:50:27;;;;;;;12.90;3.83;;;;;;;32.78;25.28;100344.59;5451840;26;20568;-40
2024/04/14 07:52:53;;;;;;;8.95;4.22;;;;;;;33.30;24.53;100340.50;5451490;26;20005;-40
2024/04/14 07:55:19;;;;;;;7.07;3.90;;;;;;;33.22;24.76;100347.72;5450833;26;20123;-40
2024/04/14 07:57:44;;;;;;;8.35;3.78;;;;;;;33.37;24.55;100345.44;5450827;26;20435;-39
2024/04/14 08:00:10;;;;;;;6.47;3.33;;;;;;;33.54;24.44;100347.19;5451147;26;20014;-38
2024/04/14 08:02:35;;;;;;;6.00;3.40;;;;;;;32.40;25.74;100344.75;5451911;26;20006;-39
2024/04/14 08:05:00;;;;;;;6.78;3.67;;;;;;;31.29;26.34;100336.41;5449656;26;20070;-42
2024/04/14 08:07:26;;;;;;;4.20;3.50;;;;;;;31.66;26.00;100341.44;5451598;26;20071;-37
2024/04/14 08:09:51;;;;;;;4.82;3.35;;;;;;;32.56;25.10;100337.47;5451916;26;20067;-36
2024/04/14 08:12:17;;;;;;;5.03;3.35;;;;;;;31.74;26.08;100337.88;5451987;26;20071;-39
2024/04/14 08:14:42;;;;;;;5.40;3.25;;;;;;;32.35;25.82;100332.00;5451954;26;20003;-39
2024/04/14 08:17:07;;;;;;;5.97;3.70;;;;;;;32.60;25.10;100332.13;5447303;26;20053;-37
2024/04/14 08:19:33;;;;;;;5.38;3.38;;;;;;;32.84;25.04;100334.16;5426921;26;19999;-36
2024/04/14 08:21:58;;;;;;;4.90;3.60;;;;;;;33.39;24.08;100330.16;5415717;26;20699;-39
2024/04/14 08:24:24;;;;;;;4.30;3.00;;;;;;;33.54;23.78;100319.59;5415253;26;20354;-36
2024/04/14 08:26:49;;;;;;;5.63;3.35;;;;;;;33.00;24.22;100331.59;5415608;26;20011;-38
2024/04/14 08:29:15;;;;;;;6.63;3.33;;;;;;;33.69;23.45;100329.97;5415764;26;20000;-37
2024/04/14 08:31:40;;;;;;;5.05;3.13;;;;;;;33.62;23.73;100326.94;5418681;26;20007;-38
2024/04/14 08:34:06;;;;;;;8.40;3.58;;;;;;;33.13;23.86;100333.25;5418961;26;20076;-41
2024/04/14 08:36:32;;;;;;;5.63;3.20;;;;;;;32.77;24.28;100331.16;5419105;26;20035;-39
2024/04/14 08:38:57;;;;;;;4.65;3.20;;;;;;;32.82;24.65;100326.22;5419384;26;20493;-39
2024/04/14 08:41:25;;;;;;;5.10;3.60;;;;;;;33.05;24.58;100314.81;5418296;26;20335;-40
2024/04/14 08:43:53;;;;;;;4.63;3.50;;;;;;;33.14;24.38;100321.06;5418816;26;20034;-39
2024/04/14 08:46:21;;;;;;;6.20;3.40;;;;;;;32.91;24.17;100320.63;5417863;26;19999;-39
2024/04/14 08:48:47;;;;;;;6.70;3.05;;;;;;;32.78;24.74;100319.00;5418534;26;19995;-35
2024/04/14 08:51:14;;;;;;;6.25;3.08;;;;;;;33.38;23.98;100314.78;5419056;26;20111;-40
2024/04/14 08:53:41;;;;;;;4.63;3.00;;;;;;;33.36;23.57;100322.59;5418659;26;20003;-37
2024/04/14 08:56:07;;;;;;;9.47;3.10;;;;;;;32.97;23.70;100312.97;5418267;26;20003;-37
2024/04/14 08:58:34;;;;;;;7.13;3.58;;;;;;;33.57;22.91;100313.41;5418562;26;20351;-39
2024/04/14 09:01:03;;;;;;;7.85;3.55;;;;;;;34.16;22.66;100301.06;5418916;26;20107;-40
2024/04/14 09:03:32;;;;;;;6.07;2.85;;;;;;;34.17;22.61;100302.66;5418305;26;19996;-40
2024/04/14 09:06:05;;;;;;;6.00;3.03;;;;;;;34.11;22.98;100299.31;5418960;26;20046;-39
2024/04/14 09:08:31;;;;;;;6.88;3.10;;;;;;;33.52;22.60;100306.16;5418563;26;20510;-41
2024/04/14 09:10:56;;;;;;;6.00;3.05;;;;;;;32.90;22.98;100306.06;5430797;26;20397;-42
2024/04/14 09:13:24;;;;;;;5.22;2.90;;;;;;;33.65;22.20;100301.47;5454371;26;20342;-38
2024/04/14 09:15:54;;;;;;;4.23;2.80;;;;;;;34.61;21.60;100295.22;5454462;26;20071;-43
2024/04/14 09:18:20;;;;;;;6.47;2.88;;;;;;;35.12;20.90;100291.84;5455030;26;19995;-39
2024/04/14 09:20:45;;;;;;;4.72;2.83;;;;;;;34.69;21.12;100282.47;5454288;26;20013;-37
2024/04/14 09:23:10;;;;;;;6.70;2.88;;;;;;;34.90;20.89;100286.94;5454203;26;20399;-39
2024/04/14 09:25:36;;;;;;;5.13;2.90;;;;;;;35.60;20.49;100286.31;5454153;26;19995;-41
2024/04/14 09:28:02;;;;;;;5.03;2.90;;;;;;;36.35;20.12;100279.69;5453996;26;20007;-38
2024/04/14 09:30:28;;;;;;;4.05;2.85;;;;;;;36.16;19.94;100276.88;5454063;26;20102;-40
2024/04/14 09:32:53;;;;;;;5.15;3.00;;;;;;;36.16;19.97;100276.88;5453876;26;20011;-38
2024/04/14 09:35:19;;;;;;;5.90;3.10;;;;;;;35.88;20.40;100277.09;5453674;26;20003;-39
2024/04/14 09:37:45;;;;;;;4.32;2.88;;;;;;;35.12;20.43;100278.03;5453455;26;20010;-39
2024/04/14 09:40:12;;;;;;;4.60;2.65;;;;;;;34.89;21.04;100275.09;5453710;26;20383;-37
2024/04/14 09:42:38;;;;;;;3.83;3.20;;;;;;;34.39;20.88;100265.44;5453811;26;20027;-41
2024/04/14 09:45:05;;;;;;;6.78;2.95;;;;;;;35.12;20.80;100266.19;5452889;26;20010;-40
2024/04/14 09:47:31;;;;;;;5.00;3.15;;;;;;;34.32;21.05;100259.69;5453566;26;20015;-36
2024/04/14 09:49:56;;;;;;;5.82;2.85;;;;;;;34.63;20.90;100256.19;5454020;26;20010;-39
2024/04/14 09:52:22;;;;;;;7.68;3.22;;;;;;;34.98;20.51;100255.56;5453870;26;19991;-39
2024/04/14 09:54:48;;;;;;;4.88;2.80;;;;;;;34.92;20.60;100248.69;5453665;26;20473;-39
2024/04/14 09:57:13;;;;;;;6.82;3.00;;;;;;;35.28;20.41;100247.66;5453854;26;19995;-41
2024/04/14 09:59:39;;;;;;;7.57;3.08;;;;;;;35.43;20.02;100251.53;5453563;26;20134;-37
2024/04/14 10:02:11;;;;;;;4.25;3.05;;;;;;;35.11;19.97;100237.72;5453481;26;20423;-40
2024/04/14 10:04:41;;;;;;;6.93;3.00;;;;;;;35.68;20.22;100241.06;5453943;26;20010;-37
2024/04/14 10:07:07;;;;;;;6.28;3.47;;;;;;;34.65;20.02;100238.13;5454069;26;20408;-38
2024/04/14 10:09:34;;;;;;;7.30;3.50;;;;;;;34.63;20.65;100239.63;5454213;26;20080;-41
2024/04/14 10:12:00;;;;;;;4.38;2.95;;;;;;;34.79;20.41;100237.72;5454240;26;20022;-40
2024/04/14 10:14:27;;;;;;;6.25;3.05;;;;;;;34.34;20.09;100227.81;5454041;26;20018;-42
2024/04/14 10:16:59;;;;;;;6.88;2.78;;;;;;;33.00;21.26;100232.38;5453278;26;19999;-39
2024/04/14 10:19:24;;;;;;;4.85;3.00;;;;;;;33.63;21.49;100226.50;5453131;26;20034;-38
2024/04/14 10:22:06;;;;;;;5.70;2.80;;;;;;;34.28;21.32;100227.25;5453518;26;20009;-39
2024/04/14 10:24:32;;;;;;;4.72;2.80;;;;;;;34.65;21.30;100220.72;5453292;26;19999;-38
2024/04/14 10:27:07;;;;;;;3.65;2.72;;;;;;;34.82;20.17;100220.44;5454001;26;20071;-40
2024/04/14 10:29:32;;;;;;;7.30;3.03;;;;;;;34.07;20.58;100221.91;5453462;26;20073;-39
2024/04/14 10:31:58;;;;;;;4.15;2.70;;;;;;;34.20;20.81;100203.38;5453701;26;20018;-39
2024/04/14 10:34:23;;;;;;;6.45;3.08;;;;;;;34.60;20.27;100208.00;5451519;26;20430;-40
2024/04/14 10:36:58;;;;;;;3.65;2.83;;;;;;;34.94;20.24;100210.41;5453203;26;20101;-38
2024/04/14 10:39:24;;;;;;;5.72;2.95;;;;;;;35.34;20.92;100210.25;5422604;26;20004;-37
2024/04/14 10:41:50;;;;;;;5.35;3.10;;;;;;;35.81;19.82;100206.56;5417280;26;19995;-40
2024/04/14 10:44:16;;;;;;;3.55;2.78;;;;;;;36.32;19.06;100202.84;5417731;26;20009;-40
2024/04/14 10:46:42;;;;;;;5.43;2.60;;;;;;;36.02;19.78;100205.38;5417493;26;20000;-40
2024/04/14 10:49:08;;;;;;;5.20;2.80;;;;;;;35.69;19.28;100195.63;5434758;26;20011;-40
2024/04/14 10:51:35;;;;;;;6.40;2.55;;;;;;;36.01;19.77;100198.25;5452091;26;20014;-39
2024/04/14 10:54:01;;;;;;;6.68;3.00;;;;;;;35.78;19.71;100187.91;5451553;26;20029;-41
2024/04/14 10:56:27;;;;;;;5.13;3.10;;;;;;;35.02;20.66;100190.09;5452510;26;20455;-38
2024/04/14 10:58:53;;;;;;;4.10;2.70;;;;;;;34.58;20.68;100188.19;5452719;26;20451;-41
2024/04/14 11:01:18;;;;;;;4.03;2.83;;;;;;;34.96;20.64;100186.00;5452615;26;20010;-40
2024/04/14 11:03:44;;;;;;;7.20;3.00;;;;;;;35.66;19.71;100184.44;5453202;26;19995;-40
2024/04/14 11:06:10;;;;;;;3.47;2.85;;;;;;;35.28;19.95;100188.75;5453100;26;20458;-38
2024/04/14 11:08:38;;;;;;;5.32;2.83;;;;;;;35.17;20.65;100185.72;5453605;26;19999;-40
2024/04/14 11:11:04;;;;;;;6.63;2.92;;;;;;;35.72;20.01;100178.28;5452280;26;20451;-38
2024/04/14 11:13:30;;;;;;;4.70;3.30;;;;;;;36.01;19.94;100176.91;5451902;26;20014;-36
2024/04/14 11:15:59;;;;;;;6.10;3.20;;;;;;;36.32;19.60;100180.66;5451566;26;20009;-36
2024/04/14 11:18:32;;;;;;;6.82;3.00;;;;;;;36.76;19.05;100168.38;5451629;26;20327;-38